Time;durP1;ratioP1;P1;durP2;ratioP2;P2;SDS_P1;SDS_P2;PMS_P1;PMS_P2;Temp;Humidity;BMP_temperature;BMP_pressure;BME280_temperature;BME280_humidity;BME280_pressure;Samples;Min_cycle;Max_cycle;Signal;HPM_P1;HPM_P2
2023/08/06 00:02:20;;;;;;;2.75;1.77;;;16.90;99.90;;;17.02;100.00;99860.00;5195487;28;20050;-50
2023/08/06 00:04:53;;;;;;;3.35;1.90;;;16.80;99.90;;;17.02;100.00;99864.38;5192750;28;20045;-50
2023/08/06 00:07:25;;;;;;;2.67;1.85;;;16.90;99.90;;;16.99;100.00;99860.00;5196423;28;20076;-51
2023/08/06 00:09:57;;;;;;;4.30;1.95;;;16.80;99.90;;;16.94;100.00;99856.50;5191118;28;20053;-50
2023/08/06 00:12:34;;;;;;;3.78;1.92;;;16.80;99.90;;;16.88;100.00;99856.53;5193561;28;20045;-49
2023/08/06 00:15:08;;;;;;;2.53;1.98;;;16.70;99.90;;;16.83;100.00;99855.72;5184545;28;20053;-50
2023/08/06 00:17:40;;;;;;;3.20;1.83;;;16.70;99.90;;;16.82;100.00;99856.56;5192376;28;20050;-51
2023/08/06 00:20:13;;;;;;;3.88;2.05;;;16.60;99.90;;;16.84;100.00;99862.72;5200230;28;20503;-50
2023/08/06 00:22:45;;;;;;;4.05;2.05;;;16.60;99.90;;;16.84;100.00;99860.09;5193577;28;20076;-51
2023/08/06 00:25:18;;;;;;;2.95;1.70;;;16.60;99.90;;;16.85;100.00;99869.72;5196211;28;20053;-49
2023/08/06 00:27:51;;;;;;;3.30;2.03;;;16.70;99.90;;;16.84;100.00;99870.63;5186979;28;20057;-50
2023/08/06 00:30:24;;;;;;;4.30;1.80;;;16.60;99.90;;;16.83;100.00;99868.88;5191069;28;20048;-50
2023/08/06 00:32:59;;;;;;;2.92;1.77;;;16.60;99.90;;;16.81;100.00;99871.50;5187505;28;20455;-49
2023/08/06 00:35:32;;;;;;;3.00;1.85;;;16.60;99.90;;;16.81;100.00;99878.50;5189395;28;20048;-50
2023/08/06 00:38:04;;;;;;;3.63;2.10;;;16.60;99.90;;;16.78;100.00;99866.25;5198681;28;20068;-49
2023/08/06 00:40:39;;;;;;;3.00;2.03;;;16.60;99.90;;;16.78;100.00;99875.91;5191707;28;20053;-49
2023/08/06 00:43:13;;;;;;;3.85;2.00;;;16.50;99.90;;;16.74;100.00;99875.03;5196962;28;20045;-50
2023/08/06 00:45:46;;;;;;;3.05;1.73;;;16.50;99.90;;;16.73;100.00;99864.53;5191249;28;20042;-49
2023/08/06 00:48:18;;;;;;;2.92;1.90;;;16.50;99.90;;;16.74;100.00;99866.28;5191839;28;20041;-49
2023/08/06 00:50:51;;;;;;;3.30;1.75;;;16.50;99.90;;;16.73;100.00;99867.16;5192099;28;20074;-50
2023/08/06 00:53:24;;;;;;;4.43;1.88;;;16.50;99.90;;;16.71;100.00;99861.03;5195288;28;20046;-50
2023/08/06 00:55:57;;;;;;;3.47;2.22;;;16.50;99.90;;;16.69;100.00;99854.84;5197817;28;20181;-50
2023/08/06 00:58:30;;;;;;;3.30;1.88;;;16.50;99.90;;;16.66;100.00;99860.16;5194984;28;20053;-50
2023/08/06 01:01:03;;;;;;;3.85;1.90;;;16.50;99.90;;;16.60;100.00;99855.78;5200700;28;20427;-50
2023/08/06 01:03:35;;;;;;;4.63;2.42;;;16.40;99.90;;;16.57;100.00;99860.19;5189407;28;20045;-50
2023/08/06 01:06:08;;;;;;;4.88;2.35;;;16.40;99.90;;;16.53;100.00;99849.66;5196574;28;20045;-49
2023/08/06 01:08:50;;;;;;;4.00;1.90;;;16.40;99.90;;;16.54;100.00;99845.28;5191779;28;20050;-50
2023/08/06 01:11:30;;;;;;;4.28;2.28;;;16.40;99.90;;;16.53;100.00;99848.81;5184899;28;20041;-49
2023/08/06 01:14:20;;;;;;;3.70;2.10;;;16.40;99.90;;;16.54;100.00;99840.91;5200243;28;20388;-49
2023/08/06 01:16:57;;;;;;;4.55;2.40;;;16.40;99.90;;;16.52;100.00;99842.66;5191866;28;20061;-49
2023/08/06 01:19:29;;;;;;;2.50;1.85;;;16.40;99.90;;;16.51;100.00;99842.69;5185986;28;20063;-49
2023/08/06 01:22:04;;;;;;;6.05;2.53;;;16.40;99.90;;;16.50;100.00;99833.03;5187836;28;20515;-50
2023/08/06 01:24:38;;;;;;;3.17;1.95;;;16.40;99.90;;;16.50;100.00;99838.31;5190867;28;20084;-51
2023/08/06 01:27:20;;;;;;;4.78;2.10;;;16.40;99.90;;;16.49;100.00;99834.78;5190989;28;20046;-50
2023/08/06 01:30:04;;;;;;;4.18;2.53;;;16.30;99.90;;;16.52;100.00;99826.00;5191215;28;20046;-51
2023/08/06 01:32:40;;;;;;;4.75;2.20;;;16.40;99.90;;;16.51;100.00;99830.41;5185784;28;20076;-49
2023/08/06 01:35:15;;;;;;;4.00;2.05;;;16.40;99.90;;;16.52;100.00;99832.16;5199312;28;20033;-49
2023/08/06 01:37:49;;;;;;;3.45;2.28;;;16.40;99.90;;;16.52;100.00;99826.88;5192043;28;20057;-51
2023/08/06 01:40:22;;;;;;;2.67;1.90;;;16.40;99.90;;;16.54;100.00;99827.75;5187784;28;20049;-50
2023/08/06 01:42:57;;;;;;;3.42;2.20;;;16.40;99.90;;;16.51;100.00;99813.75;5195307;28;20160;-50
2023/08/06 01:45:29;;;;;;;3.40;2.13;;;16.40;99.90;;;16.50;100.00;99818.13;5198294;28;20555;-50
2023/08/06 01:48:02;;;;;;;3.60;2.00;;;16.40;99.90;;;16.53;100.00;99819.88;5185368;28;20049;-51
2023/08/06 01:50:34;;;;;;;4.53;2.30;;;16.40;99.90;;;16.54;100.00;99809.31;5203452;28;20121;-50
2023/08/06 01:53:11;;;;;;;3.28;1.92;;;16.40;99.90;;;16.54;100.00;99811.09;5195380;28;20323;-49
2023/08/06 01:55:49;;;;;;;2.90;1.90;;;16.40;99.90;;;16.55;100.00;99808.44;5189888;28;20514;-50
2023/08/06 01:58:21;;;;;;;2.55;1.92;;;16.40;99.90;;;16.54;100.00;99798.81;5191165;28;20064;-50
2023/08/06 02:00:56;;;;;;;3.30;1.70;;;16.40;99.90;;;16.54;100.00;99797.94;5199926;28;20453;-49
2023/08/06 02:03:30;;;;;;;4.57;2.13;;;16.40;99.90;;;16.55;100.00;99795.28;5195675;28;20045;-50
2023/08/06 02:06:03;;;;;;;3.92;2.00;;;16.40;99.90;;;16.57;100.00;99781.28;5203235;28;20075;-50
2023/08/06 02:08:37;;;;;;;3.85;1.90;;;16.40;99.90;;;16.59;100.00;99790.03;5202906;28;20049;-50
2023/08/06 02:11:09;;;;;;;2.65;1.77;;;16.40;99.90;;;16.59;100.00;99780.38;5195228;28;20064;-49
2023/08/06 02:13:41;;;;;;;3.35;1.85;;;16.40;99.90;;;16.60;100.00;99779.47;5188030;28;20054;-50
2023/08/06 02:16:14;;;;;;;2.47;1.73;;;16.40;99.90;;;16.60;100.00;99779.47;5194357;28;20044;-49
2023/08/06 02:18:49;;;;;;;2.97;1.60;;;16.40;99.90;;;16.62;100.00;99775.06;5202554;28;20617;-50
2023/08/06 02:21:22;;;;;;;2.65;1.88;;;16.40;99.90;;;16.61;100.00;99783.84;5195072;28;20049;-50
2023/08/06 02:23:56;;;;;;;4.50;2.08;;;16.40;99.90;;;16.60;100.00;99783.88;5202739;28;20041;-49
2023/08/06 02:26:28;;;;;;;3.25;1.73;;;16.40;99.90;;;16.57;100.00;99786.53;5194702;28;20048;-49
2023/08/06 02:29:05;;;;;;;3.53;2.05;;;16.40;99.90;;;16.52;100.00;99790.06;5193294;28;20049;-50
2023/08/06 02:31:37;;;;;;;3.03;1.52;;;16.40;99.90;;;16.51;100.00;99793.56;5196948;28;20418;-50
2023/08/06 02:34:11;;;;;;;3.40;1.77;;;16.40;99.90;;;16.49;100.00;99784.78;5184368;28;20141;-50
2023/08/06 02:36:44;;;;;;;5.22;1.88;;;16.40;99.90;;;16.49;100.00;99784.78;5193156;28;20136;-50
2023/08/06 02:39:18;;;;;;;3.53;1.80;;;16.30;99.90;;;16.49;100.00;99770.78;5190981;28;20050;-49
2023/08/06 02:41:50;;;;;;;2.25;1.90;;;16.30;99.90;;;16.47;100.00;99781.31;5190508;28;20526;-49
2023/08/06 02:44:23;;;;;;;3.55;1.83;;;16.30;99.90;;;16.45;100.00;99772.56;5186683;28;20069;-50
2023/08/06 02:46:59;;;;;;;3.00;1.73;;;16.30;99.90;;;16.46;100.00;99769.03;5186391;28;20042;-49
2023/08/06 02:49:31;;;;;;;4.07;2.30;;;16.30;99.90;;;16.44;100.00;99768.19;5194736;28;20049;-49
2023/08/06 02:52:04;;;;;;;4.00;1.98;;;16.30;99.90;;;16.45;100.00;99764.66;5194318;28;20049;-49
2023/08/06 02:54:38;;;;;;;2.80;2.05;;;16.30;99.90;;;16.42;100.00;99756.78;5188832;28;20045;-51
2023/08/06 02:57:14;;;;;;;3.97;2.17;;;16.30;99.90;;;16.41;100.00;99762.94;5192410;28;20400;-50
2023/08/06 02:59:46;;;;;;;2.55;2.03;;;16.30;99.90;;;16.42;100.00;99761.16;5202039;28;20041;-49
2023/08/06 03:02:25;;;;;;;4.30;2.10;;;16.30;99.90;;;16.43;100.00;99760.28;5194462;28;20455;-50
2023/08/06 03:05:06;;;;;;;2.90;1.77;;;16.30;99.90;;;16.41;100.00;99760.28;5193994;28;20045;-49
2023/08/06 03:07:42;;;;;;;4.38;1.88;;;16.30;99.90;;;16.43;100.00;99757.66;5193762;28;20477;-49
2023/08/06 03:10:22;;;;;;;3.83;1.98;;;16.30;99.90;;;16.43;100.00;99755.94;5185306;28;20481;-48
2023/08/06 03:13:00;;;;;;;4.20;2.10;;;16.30;99.90;;;16.42;100.00;99754.16;5202103;28;20141;-49
2023/08/06 03:15:35;;;;;;;4.03;2.10;;;16.30;99.90;;;16.39;100.00;99746.28;5189150;28;20041;-49
2023/08/06 03:18:08;;;;;;;5.25;2.00;;;16.20;99.90;;;16.36;100.00;99746.28;5201490;28;20080;-49
2023/08/06 03:20:40;;;;;;;3.35;2.00;;;16.20;99.90;;;16.36;100.00;99750.69;5201287;28;20450;-49
2023/08/06 03:23:13;;;;;;;2.92;1.90;;;16.20;99.90;;;16.28;100.00;99738.44;5191495;28;20045;-49
2023/08/06 03:25:48;;;;;;;10.38;2.35;;;16.20;99.90;;;16.19;100.00;99737.63;5190209;28;20050;-50
2023/08/06 03:28:22;;;;;;;4.10;2.10;;;16.10;99.90;;;16.13;100.00;99743.78;5181550;28;20038;-48
2023/08/06 03:31:01;;;;;;;4.90;2.28;;;16.10;99.90;;;16.07;100.00;99732.44;5197646;28;20056;-49
2023/08/06 03:33:37;;;;;;;7.07;2.38;;;16.00;99.90;;;16.06;100.00;99728.06;5195331;28;20049;-49
2023/08/06 03:36:14;;;;;;;3.47;2.15;;;16.00;99.90;;;16.09;100.00;99733.28;5201602;28;20391;-49
2023/08/06 03:38:47;;;;;;;5.60;2.13;;;16.00;99.90;;;16.01;100.00;99733.31;5186342;28;20068;-49
2023/08/06 03:41:22;;;;;;;5.10;2.10;;;15.90;99.90;;;15.97;100.00;99727.22;5192304;28;20042;-49
2023/08/06 03:43:55;;;;;;;3.85;1.88;;;15.90;99.90;;;15.97;100.00;99727.22;5194055;28;20053;-49
2023/08/06 03:46:33;;;;;;;3.88;2.08;;;15.90;99.90;;;15.99;100.00;99728.06;5193623;28;20092;-49
2023/08/06 03:49:06;;;;;;;3.75;2.05;;;15.90;99.90;;;16.04;100.00;99728.06;5192588;28;20049;-49
2023/08/06 03:51:39;;;;;;;4.25;2.55;;;15.90;99.90;;;16.04;100.00;99722.81;5195741;28;20045;-49
2023/08/06 03:54:11;;;;;;;3.65;2.00;;;15.90;99.90;;;16.03;100.00;99715.78;5190990;28;20069;-49
2023/08/06 03:56:45;;;;;;;3.60;1.85;;;15.90;99.90;;;16.04;100.00;99716.66;5187518;28;20060;-49
2023/08/06 03:59:17;;;;;;;3.22;1.75;;;15.90;99.90;;;16.06;100.00;99718.41;5191329;28;20132;-50
2023/08/06 04:01:52;;;;;;;5.22;2.10;;;15.90;99.90;;;16.06;100.00;99714.91;5185924;28;20084;-49
2023/08/06 04:04:24;;;;;;;2.95;1.80;;;15.90;99.90;;;16.05;100.00;99718.44;5191865;28;20041;-49
2023/08/06 04:06:56;;;;;;;4.72;1.92;;;15.90;99.90;;;16.11;100.00;99707.88;5192688;28;20046;-49
2023/08/06 04:09:30;;;;;;;2.88;1.75;;;16.00;99.90;;;16.11;100.00;99719.28;5192381;28;20042;-50
2023/08/06 04:12:04;;;;;;;4.40;1.85;;;16.00;99.90;;;16.11;100.00;99723.66;5184809;28;20512;-49
2023/08/06 04:14:37;;;;;;;2.90;1.83;;;16.00;99.90;;;16.10;100.00;99716.63;5195859;28;20521;-50
2023/08/06 04:17:09;;;;;;;7.03;2.40;;;16.00;99.90;;;16.09;100.00;99723.63;5197987;28;20053;-50
2023/08/06 04:19:42;;;;;;;3.53;2.08;;;15.90;99.90;;;16.09;100.00;99721.00;5200278;28;20441;-49
2023/08/06 04:22:15;;;;;;;3.80;1.80;;;16.00;99.90;;;16.09;100.00;99717.50;5192505;28;20050;-49
2023/08/06 04:24:48;;;;;;;4.40;1.83;;;16.00;99.90;;;16.04;100.00;99712.31;5186652;28;20042;-50
2023/08/06 04:27:25;;;;;;;4.32;1.83;;;16.00;99.90;;;16.02;100.00;99712.28;5199378;28;20041;-50
2023/08/06 04:29:58;;;;;;;3.30;1.58;;;15.90;99.90;;;16.02;100.00;99714.91;5200416;28;20033;-49
2023/08/06 04:32:32;;;;;;;4.53;1.73;;;16.00;99.90;;;16.05;100.00;99705.28;5192536;28;20621;-50
2023/08/06 04:35:05;;;;;;;3.95;1.70;;;15.90;99.90;;;16.08;100.00;99713.16;5200460;28;20053;-50
2023/08/06 04:37:37;;;;;;;2.22;1.45;;;15.90;99.90;;;16.11;100.00;99719.28;5195749;28;20136;-50
2023/08/06 04:40:11;;;;;;;3.15;1.50;;;16.00;99.90;;;16.13;100.00;99711.38;5181294;28;20427;-49
2023/08/06 04:42:45;;;;;;;3.45;1.95;;;16.00;99.90;;;16.15;100.00;99717.47;5200391;28;20037;-49
2023/08/06 04:45:17;;;;;;;3.38;1.52;;;16.00;99.90;;;16.16;100.00;99716.59;5183994;28;20050;-50
2023/08/06 04:47:50;;;;;;;3.28;1.73;;;16.00;99.90;;;16.17;100.00;99718.34;5200409;28;20507;-49
2023/08/06 04:50:22;;;;;;;3.03;1.60;;;16.00;99.90;;;16.16;100.00;99716.59;5199586;28;21292;-50
2023/08/06 04:52:55;;;;;;;4.50;2.47;;;16.00;99.90;;;16.14;100.00;99718.38;5200384;28;20138;-49
2023/08/06 04:55:27;;;;;;;2.92;1.73;;;16.00;99.90;;;16.10;100.00;99711.38;5200135;28;20091;-50
2023/08/06 04:58:01;;;;;;;3.80;1.58;;;16.00;99.90;;;16.09;100.00;99713.13;5199993;28;20057;-49
2023/08/06 05:00:34;;;;;;;2.90;1.60;;;16.00;99.90;;;16.11;100.00;99711.38;5199480;28;20046;-49
2023/08/06 05:03:07;;;;;;;2.08;1.52;;;16.00;99.90;;;16.15;100.00;99718.34;5199256;28;20531;-49
2023/08/06 05:05:42;;;;;;;2.58;1.63;;;16.00;99.90;;;16.17;100.00;99708.72;5199814;28;20042;-49
2023/08/06 05:08:17;;;;;;;4.68;1.90;;;16.00;99.90;;;16.22;100.00;99716.56;5199327;28;20072;-50
2023/08/06 05:10:49;;;;;;;3.45;1.80;;;16.00;99.90;;;16.25;100.00;99713.94;5199867;28;20037;-49
2023/08/06 05:13:26;;;;;;;2.28;1.45;;;16.10;99.90;;;16.25;100.00;99711.31;5200873;28;20060;-49
2023/08/06 05:15:59;;;;;;;3.15;1.67;;;16.10;99.90;;;16.26;100.00;99720.94;5204308;28;20092;-49
2023/08/06 05:18:31;;;;;;;2.55;1.48;;;16.10;99.90;;;16.28;100.00;99722.66;5202902;28;20045;-49
2023/08/06 05:21:04;;;;;;;3.33;1.27;;;16.10;99.90;;;16.31;100.00;99721.81;5204002;28;20053;-49
2023/08/06 05:23:36;;;;;;;2.30;1.40;;;16.10;99.90;;;16.35;100.00;99718.25;5183763;28;20072;-49
2023/08/06 05:26:08;;;;;;;3.47;1.70;;;16.20;99.90;;;16.36;100.00;99725.25;5183975;28;20926;-50
2023/08/06 05:28:42;;;;;;;4.25;1.60;;;16.20;99.90;;;16.42;100.00;99732.25;5194875;28;20046;-49
2023/08/06 05:31:15;;;;;;;1.65;1.33;;;16.20;99.90;;;16.46;100.00;99734.84;5203706;28;20057;-50
2023/08/06 05:33:47;;;;;;;2.15;1.33;;;16.20;99.90;;;16.52;100.00;99732.19;5203562;28;20068;-49
2023/08/06 05:36:19;;;;;;;2.92;1.45;;;16.30;99.90;;;16.57;100.00;99728.66;5203712;28;20068;-50
2023/08/06 05:38:52;;;;;;;2.65;1.60;;;16.30;99.90;;;16.60;100.00;99734.75;5202839;28;20506;-50
2023/08/06 05:41:24;;;;;;;2.33;1.42;;;16.40;99.90;;;16.65;100.00;99737.38;5203010;28;20061;-50
2023/08/06 05:43:58;;;;;;;3.40;1.40;;;16.40;99.90;;;16.69;100.00;99739.06;5196832;28;20507;-50
2023/08/06 05:46:30;;;;;;;2.88;1.23;;;16.50;99.90;;;16.75;100.00;99739.06;5202107;28;20720;-50
2023/08/06 05:49:03;;;;;;;2.75;1.60;;;16.50;99.90;;;16.80;100.00;99740.78;5202673;28;20045;-50
2023/08/06 05:51:39;;;;;;;2.67;1.90;;;16.60;99.90;;;16.87;100.00;99740.75;5202930;28;20049;-50
2023/08/06 05:54:11;;;;;;;2.47;1.40;;;16.60;99.90;;;16.93;100.00;99735.44;5194595;28;20427;-50
2023/08/06 05:56:43;;;;;;;1.90;1.40;;;16.60;99.90;;;16.99;100.00;99744.16;5202878;28;20041;-49
2023/08/06 05:59:17;;;;;;;1.63;1.30;;;16.70;99.90;;;17.04;100.00;99745.00;5202755;28;20049;-50
2023/08/06 06:01:50;;;;;;;2.60;1.33;;;16.80;99.90;;;17.08;100.00;99738.84;5204644;28;20291;-50
2023/08/06 06:04:22;;;;;;;2.88;1.40;;;16.80;99.90;;;17.12;100.00;99750.19;5202835;28;20056;-50
2023/08/06 06:06:54;;;;;;;2.67;1.10;;;16.80;99.90;;;17.14;100.00;99747.53;5202253;28;20063;-49
2023/08/06 06:09:27;;;;;;;2.15;1.48;;;16.90;99.90;;;17.14;100.00;99742.28;5200848;28;20399;-50
2023/08/06 06:11:59;;;;;;;2.20;1.42;;;16.90;99.90;;;17.14;100.00;99752.81;5201872;28;20049;-50
2023/08/06 06:14:33;;;;;;;3.33;1.80;;;16.80;99.90;;;17.13;100.00;99745.81;5201338;28;20049;-49
2023/08/06 06:17:06;;;;;;;1.33;0.93;;;16.80;99.90;;;17.11;100.00;99758.13;5201689;28;20037;-50
2023/08/06 06:19:38;;;;;;;3.00;1.42;;;16.90;99.90;;;17.09;100.00;99761.66;5200889;28;20050;-49
2023/08/06 06:22:10;;;;;;;1.67;1.13;;;16.80;99.90;;;17.12;100.00;99765.13;5201133;28;20076;-49
2023/08/06 06:24:43;;;;;;;2.00;1.30;;;16.90;99.90;;;17.14;100.00;99760.72;5201259;28;20045;-49
2023/08/06 06:27:15;;;;;;;1.15;0.95;;;16.90;99.90;;;17.14;100.00;99768.63;5201437;28;20046;-50
2023/08/06 06:29:49;;;;;;;1.40;0.82;;;16.90;99.90;;;17.16;100.00;99766.88;5196156;28;20042;-49
2023/08/06 06:32:21;;;;;;;1.48;1.00;;;16.90;99.90;;;17.17;100.00;99769.47;5198536;28;20060;-49
2023/08/06 06:34:54;;;;;;;2.95;1.10;;;16.90;99.90;;;17.16;100.00;99773.00;5201622;28;20046;-49
2023/08/06 06:37:26;;;;;;;1.25;1.00;;;16.90;99.90;;;17.16;100.00;99772.13;5198878;28;20070;-49
2023/08/06 06:39:59;;;;;;;1.05;0.77;;;16.90;99.90;;;17.14;100.00;99780.00;5195732;28;20630;-50
2023/08/06 06:42:31;;;;;;;1.10;0.93;;;16.90;99.90;;;17.14;100.00;99785.28;5200984;28;20042;-48
2023/08/06 06:45:10;;;;;;;1.95;0.82;;;16.90;99.90;;;17.14;100.00;99784.41;5201604;28;20053;-47
2023/08/06 06:47:42;;;;;;;1.63;0.98;;;16.90;99.90;;;17.16;100.00;99790.56;5192881;28;20041;-47
2023/08/06 06:50:15;;;;;;;1.13;0.73;;;16.80;99.90;;;17.14;100.00;99782.66;5200515;28;20053;-48
2023/08/06 06:52:47;;;;;;;1.63;0.68;;;16.90;99.90;;;17.13;100.00;99785.31;5201277;28;20041;-47
2023/08/06 06:55:20;;;;;;;1.40;0.68;;;16.90;99.90;;;17.12;100.00;99787.06;5202524;28;20439;-47
2023/08/06 06:57:52;;;;;;;0.80;0.63;;;16.90;99.90;;;17.11;100.00;99784.44;5200917;28;20056;-47
2023/08/06 07:00:26;;;;;;;1.20;0.70;;;16.80;99.90;;;17.09;100.00;99793.25;5200497;28;20050;-48
2023/08/06 07:02:58;;;;;;;0.80;0.63;;;16.80;99.90;;;17.04;100.00;99784.50;5199950;28;20052;-53
2023/08/06 07:05:31;;;;;;;1.30;0.77;;;16.80;99.90;;;17.03;100.00;99785.38;5160164;28;1165761;-47
2023/08/06 07:08:03;;;;;;;1.13;1.00;;;16.80;99.90;;;16.99;100.00;99788.03;5202087;28;20045;-47
2023/08/06 07:10:35;;;;;;;1.02;0.75;;;16.80;99.90;;;16.97;100.00;99790.69;5201540;28;20049;-48
2023/08/06 07:13:08;;;;;;;1.02;0.80;;;16.70;99.90;;;16.95;100.00;99787.22;5201625;28;20063;-47
2023/08/06 07:15:41;;;;;;;1.02;0.77;;;16.70;99.90;;;16.99;100.00;99796.81;5201408;28;20053;-47
2023/08/06 07:18:14;;;;;;;1.83;0.90;;;16.70;99.90;;;16.99;100.00;99790.66;5200569;28;20445;-48
2023/08/06 07:20:50;;;;;;;1.95;0.90;;;16.70;99.90;;;17.01;100.00;99807.31;5193514;28;20045;-47
2023/08/06 07:23:28;;;;;;;1.05;0.80;;;16.70;99.90;;;16.98;100.00;99797.69;5201622;28;20049;-48
2023/08/06 07:26:01;;;;;;;1.58;1.00;;;16.70;99.90;;;16.95;100.00;99802.09;5201073;28;20068;-48
2023/08/06 07:28:33;;;;;;;2.28;0.93;;;16.70;99.90;;;16.96;100.00;99802.13;5189717;28;20057;-48
2023/08/06 07:31:07;;;;;;;2.72;0.93;;;16.70;99.90;;;16.97;100.00;99797.72;5201101;28;20049;-48
2023/08/06 07:33:42;;;;;;;2.45;1.13;;;16.70;99.90;;;16.99;100.00;99812.59;5200787;28;20056;-48
2023/08/06 07:36:16;;;;;;;1.25;1.10;;;16.70;99.90;;;16.99;100.00;99811.72;5200780;28;20069;-47
2023/08/06 07:38:51;;;;;;;1.60;1.08;;;16.70;99.90;;;17.00;100.00;99809.09;5180067;28;20041;-48
2023/08/06 07:41:23;;;;;;;2.67;1.00;;;16.70;99.90;;;16.99;100.00;99817.88;5197643;28;20051;-47
2023/08/06 07:43:56;;;;;;;1.92;1.13;;;16.70;99.90;;;16.96;100.00;99817.03;5196464;28;20049;-48
2023/08/06 07:46:29;;;;;;;1.30;1.02;;;16.70;99.90;;;16.94;100.00;99809.13;5207100;28;20410;-47
2023/08/06 07:49:02;;;;;;;1.35;1.25;;;16.70;99.90;;;16.95;100.00;99810.91;5199711;28;20061;-48
2023/08/06 07:51:37;;;;;;;1.40;1.30;;;16.70;99.90;;;16.97;100.00;99813.50;5193161;28;20471;-48
2023/08/06 07:54:10;;;;;;;2.65;1.52;;;16.70;99.90;;;16.95;100.00;99815.25;5192961;28;20411;-47
2023/08/06 07:56:42;;;;;;;1.70;1.30;;;16.70;99.90;;;16.90;100.00;99815.31;5198900;28;20438;-47
2023/08/06 07:59:15;;;;;;;2.47;1.33;;;16.60;99.90;;;16.85;100.00;99814.47;5200259;28;20053;-47
2023/08/06 08:01:51;;;;;;;2.30;1.40;;;16.60;99.90;;;16.81;100.00;99817.97;5197966;28;20049;-47
2023/08/06 08:04:25;;;;;;;1.83;1.63;;;16.50;99.90;;;16.78;100.00;99813.63;5195141;28;20164;-47
2023/08/06 08:06:57;;;;;;;2.83;1.55;;;16.60;99.90;;;16.82;100.00;99814.47;5200484;28;20042;-47
2023/08/06 08:09:29;;;;;;;1.90;1.55;;;16.50;99.90;;;16.85;100.00;99819.72;5199711;28;20522;-47
2023/08/06 08:12:02;;;;;;;2.15;1.50;;;16.60;99.90;;;16.93;100.00;99819.66;5200323;28;20053;-47
2023/08/06 08:14:36;;;;;;;1.70;1.60;;;16.70;99.90;;;16.98;100.00;99816.13;5200725;28;20502;-48
2023/08/06 08:17:09;;;;;;;2.50;1.45;;;16.70;99.90;;;17.09;100.00;99821.34;5201025;28;20458;-47
2023/08/06 08:19:42;;;;;;;1.77;1.60;;;16.80;99.90;;;17.18;100.00;99821.25;5192123;28;20395;-48
2023/08/06 08:22:14;;;;;;;3.85;1.70;;;16.80;99.90;;;17.29;100.00;99824.69;5198520;28;20048;-47
2023/08/06 08:24:47;;;;;;;2.50;1.80;;;17.00;99.90;;;17.37;100.00;99821.97;5183875;28;20068;-47
2023/08/06 08:27:19;;;;;;;2.33;1.50;;;17.00;99.90;;;17.45;100.00;99828.06;5193476;28;20034;-48
2023/08/06 08:29:57;;;;;;;1.40;1.30;;;17.10;99.90;;;17.49;100.00;99827.16;5192344;28;20518;-48
2023/08/06 08:32:31;;;;;;;1.60;1.48;;;17.20;99.90;;;17.52;100.00;99828.88;5192214;28;20049;-48
2023/08/06 08:35:04;;;;;;;2.33;1.85;;;17.20;99.90;;;17.55;100.00;99828.88;5200181;28;20046;-48
2023/08/06 08:37:40;;;;;;;1.98;1.48;;;17.20;99.90;;;17.57;100.00;99822.69;5198237;28;20395;-48
2023/08/06 08:40:12;;;;;;;2.30;1.60;;;17.30;99.90;;;17.59;100.00;99836.69;5199651;28;20045;-48
2023/08/06 08:42:45;;;;;;;1.88;1.33;;;17.30;99.90;;;17.64;100.00;99824.38;5200066;28;20041;-48
2023/08/06 08:45:21;;;;;;;1.48;1.23;;;17.30;99.90;;;17.66;100.00;99826.97;5200381;28;20045;-48
2023/08/06 08:47:58;;;;;;;1.80;1.40;;;17.30;99.90;;;17.66;100.00;99831.38;5184579;28;20061;-47
2023/08/06 08:50:31;;;;;;;3.25;1.35;;;17.40;99.90;;;17.61;100.00;99832.31;5190349;28;20054;-45
2023/08/06 08:53:04;;;;;;;2.55;1.50;;;17.40;99.90;;;17.67;100.00;99828.75;5193709;28;20041;-49
2023/08/06 08:55:36;;;;;;;3.00;1.30;;;17.40;99.90;;;17.71;100.00;99834.84;5199519;28;20436;-49
2023/08/06 08:58:09;;;;;;;1.60;1.30;;;17.40;99.90;;;17.72;100.00;99832.22;5199412;28;20056;-49
2023/08/06 09:00:43;;;;;;;2.83;1.50;;;17.40;99.90;;;17.71;100.00;99841.03;5199314;28;20054;-49
2023/08/06 09:03:18;;;;;;;7.40;2.38;;;17.40;99.90;;;17.70;100.00;99833.13;5198254;28;20045;-49
2023/08/06 09:05:54;;;;;;;3.42;2.00;;;17.40;99.90;;;17.67;100.00;99836.66;5191146;28;20154;-49
2023/08/06 09:08:35;;;;;;;1.77;1.52;;;17.40;99.90;;;17.66;100.00;99847.19;5198590;28;20045;-48
2023/08/06 09:11:10;;;;;;;;;;;17.40;99.90;;;17.60;100.00;99845.47;5194503;28;20046;-49
2023/08/06 09:13:43;;;;;;;21.88;6.88;;;17.40;99.90;;;17.59;100.00;99852.50;5190083;28;19928;-49
2023/08/06 09:16:15;;;;;;;17.42;6.20;;;17.40;99.90;;;17.72;100.00;99847.16;5199831;28;20037;-49
2023/08/06 09:18:49;;;;;;;21.05;7.32;;;17.40;99.90;;;17.80;100.00;99855.88;5198328;28;20242;-49
2023/08/06 09:21:21;;;;;;;19.67;5.80;;;17.50;99.90;;;17.86;100.00;99845.28;5191859;28;20057;-49
2023/08/06 09:23:57;;;;;;;11.57;4.68;;;17.60;99.90;;;17.89;100.00;99838.22;5179803;28;20392;-49
2023/08/06 09:26:34;;;;;;;16.75;5.65;;;17.70;99.90;;;17.99;100.00;99851.28;5195922;28;20056;-49
2023/08/06 09:29:08;;;;;;;23.38;7.35;;;17.70;99.90;;;18.10;100.00;99845.03;5191261;28;20057;-50
2023/08/06 09:31:44;;;;;;;20.20;6.68;;;17.80;99.90;;;18.21;100.00;99851.97;5199129;28;20080;-49
2023/08/06 09:34:21;;;;;;;19.52;6.32;;;17.90;99.90;;;18.40;100.00;99851.72;5198829;28;20060;-50
2023/08/06 09:36:54;;;;;;;14.68;4.85;;;18.10;99.90;;;18.57;100.00;99855.91;5199354;28;20067;-49
2023/08/06 09:39:29;;;;;;;11.57;3.65;;;18.30;99.90;;;18.85;100.00;99861.75;5193138;28;20046;-49
2023/08/06 09:42:05;;;;;;;6.93;2.58;;;18.50;99.90;;;19.19;100.00;99862.13;5198523;28;20427;-49
2023/08/06 09:44:39;;;;;;;5.50;2.33;;;18.80;99.90;;;19.67;100.00;99851.69;5199304;28;20054;-50
2023/08/06 09:47:11;;;;;;;3.35;1.88;;;19.10;99.90;;;20.10;100.00;99859.75;5199528;28;20422;-49
2023/08/06 09:49:45;;;;;;;2.60;1.42;;;19.50;99.90;;;20.27;100.00;99872.63;5190959;28;20046;-49
2023/08/06 09:52:18;;;;;;;4.57;1.70;;;19.70;99.90;;;20.32;100.00;99869.00;5199514;28;20057;-49
2023/08/06 09:54:51;;;;;;;3.67;1.52;;;19.90;99.90;;;20.39;100.00;99879.47;5199337;28;20042;-49
2023/08/06 09:57:26;;;;;;;2.28;1.30;;;19.90;99.90;;;20.38;100.00;99875.06;5199256;28;20041;-49
2023/08/06 09:59:58;;;;;;;1.73;1.05;;;20.00;99.90;;;20.18;100.00;99883.41;5193663;28;20053;-48
2023/08/06 10:02:31;;;;;;;1.52;0.98;;;19.90;99.90;;;19.78;100.00;99895.56;5200213;28;20580;-49
2023/08/06 10:05:05;;;;;;;1.23;0.93;;;19.60;99.90;;;19.45;100.00;99890.81;5202023;28;20506;-48
2023/08/06 10:07:39;;;;;;;1.17;1.08;;;19.30;99.90;;;19.21;100.00;99898.19;5200153;28;20042;-48
2023/08/06 10:10:12;;;;;;;1.88;1.30;;;19.00;99.90;;;19.03;100.00;99903.72;5202398;28;20424;-48
2023/08/06 10:12:50;;;;;;;1.85;1.50;;;18.90;99.90;;;18.84;100.00;99900.44;5198423;28;20045;-48
2023/08/06 10:15:26;;;;;;;2.42;1.58;;;18.70;99.90;;;18.61;100.00;99916.56;5214028;28;20529;-48
2023/08/06 10:18:00;;;;;;;2.22;1.88;;;18.50;99.90;;;18.38;100.00;99929.13;5186730;28;20061;-48
2023/08/06 10:20:36;;;;;;;3.80;1.95;;;18.30;99.90;;;18.24;100.00;99924.00;5188542;28;20088;-48
2023/08/06 10:23:08;;;;;;;3.78;1.60;;;18.10;99.90;;;18.13;100.00;99936.44;5200964;28;20056;-48
2023/08/06 10:25:42;;;;;;;2.92;1.92;;;17.90;99.90;;;18.02;100.00;99939.16;5198789;28;20507;-48
2023/08/06 10:28:17;;;;;;;2.25;1.73;;;17.80;99.90;;;17.81;100.00;99936.72;5196504;28;20054;-47
2023/08/06 10:30:50;;;;;;;1.55;1.42;;;17.60;99.90;;;17.62;100.00;99952.66;5212144;28;20041;-47
2023/08/06 10:33:23;;;;;;;2.00;0.88;;;17.50;99.90;;;17.40;100.00;99956.28;5201772;28;20041;-48
2023/08/06 10:36:07;;;;;;;2.05;0.60;;;17.30;99.90;;;17.14;100.00;99963.47;5199890;28;20403;-47
2023/08/06 10:38:46;;;;;;;0.40;0.40;;;17.00;99.90;;;16.86;100.00;99963.59;5199788;28;20063;-48
2023/08/06 10:41:25;;;;;;;0.40;0.40;;;16.70;99.90;;;16.69;100.00;99970.63;5199140;28;20041;-47